createdAt,value
2023-11-01T00:00:01.786Z,991.19
2023-11-01T00:05:01.941Z,991.15
2023-11-01T00:10:02.283Z,991.1
2023-11-01T00:15:03.863Z,991.13
2023-11-01T00:20:01.900Z,991.15
2023-11-01T00:25:01.805Z,991.05
2023-11-01T00:30:01.881Z,990.99
2023-11-01T00:35:02.176Z,990.85
2023-11-01T00:40:02.147Z,990.9
2023-11-01T00:45:01.776Z,990.83
2023-11-01T00:50:01.966Z,990.72
2023-11-01T00:55:02.127Z,990.72
2023-11-01T01:00:01.970Z,990.65
2023-11-01T01:05:01.976Z,990.65
2023-11-01T01:10:02.251Z,990.52
2023-11-01T01:15:02.233Z,990.48
2023-11-01T01:20:01.713Z,990.44
2023-11-01T01:25:01.335Z,990.28
2023-11-01T01:30:01.719Z,990.23
2023-11-01T01:35:01.396Z,990.23
2023-11-01T01:40:01.779Z,990.22
2023-11-01T01:45:02.102Z,990.02
2023-11-01T01:50:02.100Z,989.96
2023-11-01T01:55:01.509Z,989.92
2023-11-01T02:00:02.065Z,989.85
2023-11-01T02:05:02.416Z,989.75
2023-11-01T02:10:02.169Z,989.71
2023-11-01T02:15:02.352Z,989.62
2023-11-01T02:20:01.627Z,989.55
2023-11-01T02:25:01.729Z,989.45
2023-11-01T02:30:02.059Z,989.3
2023-11-01T02:35:02.032Z,989.2
2023-11-01T02:40:02.175Z,989.13
2023-11-01T02:45:02.016Z,989.09
2023-11-01T02:50:01.294Z,989.08
2023-11-01T02:55:01.800Z,989
2023-11-01T03:00:02.049Z,989.01
2023-11-01T03:05:01.993Z,988.92
2023-11-01T03:10:02.114Z,988.94
2023-11-01T03:15:01.903Z,988.86
2023-11-01T03:20:01.400Z,988.84
2023-11-01T03:25:01.648Z,988.81
2023-11-01T03:30:02.059Z,988.81
2023-11-01T03:35:01.968Z,988.82
2023-11-01T03:40:01.975Z,988.76
2023-11-01T03:45:02.406Z,988.79
2023-11-01T03:50:01.683Z,988.75
2023-11-01T03:55:02.016Z,988.78
2023-11-01T04:00:02.047Z,988.81
2023-11-01T04:05:02.017Z,988.8
2023-11-01T04:10:01.932Z,988.8
2023-11-01T04:15:02.452Z,988.82
2023-11-01T04:20:01.728Z,988.89
2023-11-01T04:25:01.780Z,988.86
2023-11-01T04:30:02.218Z,988.71
2023-11-01T04:35:01.400Z,988.63
2023-11-01T04:40:02.070Z,988.54
2023-11-01T04:45:02.249Z,988.47
2023-11-01T04:50:01.896Z,988.43
2023-11-01T04:55:02.052Z,988.41
2023-11-01T05:00:01.598Z,988.38
2023-11-01T05:05:01.930Z,988.35
2023-11-01T05:10:02.108Z,988.33
2023-11-01T05:15:01.551Z,988.25
2023-11-01T05:20:01.547Z,988.18
2023-11-01T05:25:01.626Z,988.18
2023-11-01T05:30:02.005Z,988.08
2023-11-01T05:35:02.217Z,988.06
2023-11-01T05:40:01.329Z,988.1
2023-11-01T05:45:01.915Z,988.17
2023-11-01T05:50:02.145Z,988.21
2023-11-01T05:55:11.075Z,988.21
2023-11-01T06:00:01.763Z,988.2
2023-11-01T06:05:01.415Z,988.22
2023-11-01T06:10:01.930Z,988.22
2023-11-01T06:15:02.195Z,988.24
2023-11-01T06:20:01.452Z,988.27
2023-11-01T06:25:01.309Z,988.3
2023-11-01T06:30:01.711Z,988.32
2023-11-01T06:35:02.050Z,988.37
2023-11-01T06:40:01.567Z,988.31
2023-11-01T06:45:01.797Z,988.3
2023-11-01T06:50:02.219Z,988.31
2023-11-01T06:55:01.334Z,988.39
2023-11-01T07:00:01.992Z,988.36
2023-11-01T07:05:01.430Z,988.4
2023-11-01T07:10:02.045Z,988.38
2023-11-01T07:15:01.692Z,988.31
2023-11-01T07:20:02.090Z,988.39
2023-11-01T07:25:01.264Z,988.36
2023-11-01T07:30:01.692Z,988.31
2023-11-01T07:35:01.979Z,988.27
2023-11-01T07:40:02.320Z,988.2
2023-11-01T07:45:02.287Z,988.17
2023-11-01T07:50:01.550Z,988.18
2023-11-01T07:55:01.999Z,988.18
2023-11-01T08:00:02.190Z,988.14
2023-11-01T08:05:02.032Z,988.09
2023-11-01T08:10:02.126Z,988.04
2023-11-01T08:15:01.654Z,988.13
2023-11-01T08:20:03.087Z,988.26
2023-11-01T08:25:01.275Z,988.2
2023-11-01T08:30:01.851Z,988.17
2023-11-01T08:35:01.890Z,988.17
2023-11-01T08:40:01.932Z,988.15
2023-11-01T08:45:02.083Z,988.15
2023-11-01T08:50:02.238Z,988.1
2023-11-01T08:55:01.587Z,988.09
2023-11-01T09:00:01.707Z,988.07
2023-11-01T09:05:02.175Z,988.03
2023-11-01T09:10:02.697Z,988.01
2023-11-01T09:15:01.986Z,988.03
2023-11-01T09:20:02.254Z,988
2023-11-01T09:25:01.374Z,988.15
2023-11-01T09:30:01.892Z,988.14
2023-11-01T09:35:01.984Z,988.15
2023-11-01T09:40:01.994Z,988.14
2023-11-01T09:45:02.285Z,988.16
2023-11-01T09:50:01.963Z,988.15
2023-11-01T09:55:01.823Z,988.12
2023-11-01T10:00:01.598Z,988.16
2023-11-01T10:05:02.362Z,988.13
2023-11-01T10:10:01.385Z,988.08
2023-11-01T10:15:01.844Z,988.09
2023-11-01T10:20:04.231Z,987.98
2023-11-01T10:25:01.468Z,987.98
2023-11-01T10:30:01.832Z,987.91
2023-11-01T10:35:01.982Z,987.9
2023-11-01T10:40:02.221Z,987.83
2023-11-01T10:45:01.371Z,987.74
2023-11-01T10:50:01.755Z,987.68
2023-11-01T10:55:01.870Z,987.59
2023-11-01T11:00:02.248Z,987.57
2023-11-01T11:05:02.693Z,987.57
2023-11-01T11:10:01.855Z,987.2
2023-11-01T11:15:02.215Z,987.06
2023-11-01T11:20:01.496Z,986.98
2023-11-01T11:25:01.581Z,986.84
2023-11-01T11:30:01.915Z,986.76
2023-11-01T11:35:02.021Z,986.7
2023-11-01T11:40:01.350Z,986.73
2023-11-01T11:45:01.874Z,986.64
2023-11-01T11:50:01.638Z,986.62
2023-11-01T11:55:01.887Z,986.59
2023-11-01T12:00:02.125Z,986.48
2023-11-01T12:05:01.376Z,986.39
2023-11-01T12:10:01.372Z,986.25
2023-11-01T12:15:02.554Z,986.17
2023-11-01T12:20:02.272Z,986.13
2023-11-01T12:25:01.359Z,986.1
2023-11-01T12:30:02.567Z,986.09
2023-11-01T12:35:01.430Z,986.01
2023-11-01T12:40:01.849Z,985.92
2023-11-01T12:45:01.512Z,985.83
2023-11-01T12:50:01.997Z,985.7
2023-11-01T12:55:02.045Z,985.7
2023-11-01T13:00:01.605Z,985.67
2023-11-01T13:05:02.090Z,985.61
2023-11-01T13:10:02.241Z,985.61
2023-11-01T13:15:01.569Z,985.45
2023-11-01T13:20:01.894Z,985.41
2023-11-01T13:25:01.866Z,985.26
2023-11-01T13:30:01.417Z,985.16
2023-11-01T13:35:01.890Z,985.07
2023-11-01T13:40:02.112Z,984.94
2023-11-01T13:45:02.059Z,984.79
2023-11-01T13:50:01.366Z,984.8
2023-11-01T13:55:01.611Z,984.76
2023-11-01T14:00:02.019Z,984.6
2023-11-01T14:05:01.389Z,984.62
2023-11-01T14:10:01.646Z,984.5
2023-11-01T14:15:02.224Z,984.4
2023-11-01T14:20:01.694Z,984.4
2023-11-01T14:25:01.539Z,984.33
2023-11-01T14:30:02.155Z,984.4
2023-11-01T14:35:01.336Z,984.46
2023-11-01T14:40:01.954Z,984.36
2023-11-01T14:45:02.151Z,984.38
2023-11-01T14:50:01.540Z,984.42
2023-11-01T14:55:01.857Z,984.42
2023-11-01T15:00:02.247Z,984.46
2023-11-01T15:05:01.539Z,984.45
2023-11-01T15:10:01.971Z,984.33
2023-11-01T15:15:01.333Z,984.36
2023-11-01T15:20:01.862Z,984.22
2023-11-01T15:25:02.120Z,984.1
2023-11-01T15:30:02.360Z,984.13
2023-11-01T15:35:01.744Z,984.06
2023-11-01T15:40:04.306Z,984.08
2023-11-01T15:45:01.776Z,983.99
2023-11-01T15:50:02.292Z,983.95
2023-11-01T15:55:01.605Z,983.96
2023-11-01T16:00:01.957Z,983.91
2023-11-01T16:05:01.462Z,983.88
2023-11-01T16:10:01.593Z,983.87
2023-11-01T16:15:02.134Z,983.8
2023-11-01T16:20:03.214Z,983.59
2023-11-01T16:25:02.124Z,983.58
2023-11-01T16:30:02.330Z,983.68
2023-11-01T16:35:01.737Z,983.59
2023-11-01T16:40:01.410Z,983.62
2023-11-01T16:45:01.870Z,983.62
2023-11-01T16:50:02.051Z,983.62
2023-11-01T16:55:01.532Z,983.65
2023-11-01T17:00:02.213Z,983.73
2023-11-01T17:05:01.462Z,983.74
2023-11-01T17:10:02.090Z,983.91
2023-11-01T17:15:01.401Z,983.93
2023-11-01T17:20:01.448Z,983.92
2023-11-01T17:25:02.144Z,983.98
2023-11-01T17:30:01.576Z,984.13
2023-11-01T17:35:02.242Z,983.9
2023-11-01T17:40:01.698Z,983.94
2023-11-01T17:45:01.350Z,983.97
2023-11-01T17:50:01.761Z,983.78
2023-11-01T17:55:02.165Z,983.66
2023-11-01T18:00:01.620Z,983.82
2023-11-01T18:05:02.119Z,983.85
2023-11-01T18:10:01.570Z,983.91
2023-11-01T18:15:02.206Z,983.72
2023-11-01T18:20:05.117Z,983.77
2023-11-01T18:25:01.483Z,983.86
2023-11-01T18:30:02.171Z,983.78
2023-11-01T18:35:01.376Z,983.77
2023-11-01T18:40:01.837Z,983.65
2023-11-01T18:45:01.977Z,983.71
2023-11-01T18:50:02.211Z,983.46
2023-11-01T18:55:01.529Z,983.52
2023-11-01T19:00:02.051Z,983.42
2023-11-01T19:05:01.644Z,983.39
2023-11-01T19:10:01.699Z,983.3
2023-11-01T19:15:02.220Z,983.37
2023-11-01T19:20:02.221Z,983.49
2023-11-01T19:25:01.590Z,983.43
2023-11-01T19:30:01.447Z,983.54
2023-11-01T19:35:02.171Z,983.55
2023-11-01T19:40:01.468Z,983.55
2023-11-01T19:45:01.690Z,983.56
2023-11-01T19:50:01.706Z,983.58
2023-11-01T19:55:01.555Z,983.63
2023-11-01T20:00:01.855Z,983.55
2023-11-01T20:05:01.577Z,983.48
2023-11-01T20:10:01.807Z,983.38
2023-11-01T20:15:01.881Z,983.25
2023-11-01T20:20:02.069Z,983.14
2023-11-01T20:25:01.922Z,983.1
2023-11-01T20:30:02.293Z,983.08
2023-11-01T20:35:02.011Z,983.14
2023-11-01T20:40:01.355Z,983.14
2023-11-01T20:45:02.210Z,983.16
2023-11-01T20:50:02.061Z,983.05
2023-11-01T20:55:01.776Z,982.93
2023-11-01T21:00:02.385Z,982.86
2023-11-01T21:05:01.672Z,982.75
2023-11-01T21:10:01.981Z,982.6
2023-11-01T21:15:01.618Z,982.45
2023-11-01T21:20:02.157Z,982.43
2023-11-01T21:25:01.545Z,982.31
2023-11-01T21:30:02.304Z,982.07
2023-11-01T21:35:01.328Z,981.84
2023-11-01T21:40:02.037Z,981.81
2023-11-01T21:45:01.683Z,981.76
2023-11-01T21:50:01.731Z,981.65
2023-11-01T21:55:01.369Z,981.55
2023-11-01T22:00:02.484Z,981.53
2023-11-01T22:05:01.566Z,981.51
2023-11-01T22:10:01.490Z,981.43
2023-11-01T22:15:01.806Z,981.27
2023-11-01T22:20:01.489Z,981.25
2023-11-01T22:25:02.194Z,981.12
2023-11-01T22:30:02.158Z,980.98
2023-11-01T22:35:01.733Z,980.92
2023-11-01T22:40:02.073Z,980.95
2023-11-01T22:45:01.520Z,980.77
2023-11-01T22:50:02.011Z,980.73
2023-11-01T22:55:01.816Z,980.59
2023-11-01T23:00:02.888Z,980.61
2023-11-01T23:05:02.998Z,980.45
2023-11-01T23:10:02.528Z,980.16
2023-11-01T23:15:02.214Z,980.07
2023-11-01T23:20:01.771Z,979.97
2023-11-01T23:25:01.414Z,979.95
2023-11-01T23:30:01.935Z,979.86
2023-11-01T23:35:01.341Z,979.76
2023-11-01T23:40:01.639Z,979.65
2023-11-01T23:45:02.224Z,979.56
2023-11-01T23:50:01.922Z,979.48
2023-11-01T23:55:02.007Z,979.42
